Time;durP1;ratioP1;P1;durP2;ratioP2;P2;SDS_P1;SDS_P2;PMS_P1;PMS_P2;Temp;Humidity;BMP_temperature;BMP_pressure;BME280_temperature;BME280_humidity;BME280_pressure;Samples;Min_cycle;Max_cycle;Signal;HPM_P1;HPM_P2
2021/11/20 00:00:38;;;;;;;6.40;2.60;;;;;;;11.62;80.37;100094.25;87316;1292;98772;-67
2021/11/20 00:02:52;;;;;;;6.50;1.90;;;;;;;11.57;80.34;100101.56;87431;1296;88833;-64
2021/11/20 00:05:04;;;;;;;5.40;1.70;;;;;;;11.53;80.17;100098.79;87375;1293;95543;-63
2021/11/20 00:07:10;;;;;;;4.70;1.80;;;;;;;11.54;80.09;100112.02;87393;1293;82301;-64
2021/11/20 00:09:21;;;;;;;4.50;1.80;;;;;;;11.54;79.95;100114.20;87424;1289;83371;-66
2021/11/20 00:11:30;;;;;;;5.60;2.70;;;;;;;11.54;79.74;100124.98;87454;1293;100278;-67
2021/11/20 00:13:42;;;;;;;10.90;3.70;;;;;;;11.56;79.70;100136.06;87518;1293;88695;-66
2021/11/20 00:15:51;;;;;;;7.80;2.70;;;;;;;11.59;79.89;100133.90;87432;1292;93549;-64
2021/11/20 00:17:59;;;;;;;7.00;2.90;;;;;;;11.59;79.92;100133.86;87483;1293;78636;-66
2021/11/20 00:20:11;;;;;;;6.00;3.20;;;;;;;11.60;79.99;100140.56;87531;1293;81142;-68
2021/11/20 00:22:24;;;;;;;5.90;2.50;;;;;;;11.59;79.76;100143.77;87474;1293;100108;-63
2021/11/20 00:24:39;;;;;;;5.60;1.80;;;;;;;11.54;79.84;100146.29;87449;1293;88681;-62
2021/11/20 00:26:45;;;;;;;6.00;2.00;;;;;;;11.54;79.95;100140.00;87532;1298;93789;-62
2021/11/20 00:29:11;;;;;;;4.90;2.20;;;;;;;11.55;79.84;100136.23;87523;1293;82116;-67
2021/11/20 00:31:18;;;;;;;6.10;2.10;;;;;;;11.56;79.84;100143.92;87460;1292;83222;-68
2021/11/20 00:33:31;;;;;;;5.60;2.30;;;;;;;11.59;79.84;100144.90;87424;1293;99657;-67
2021/11/20 00:35:41;;;;;;;5.00;2.70;;;;;;;11.60;79.93;100147.23;87537;1293;87425;-67
2021/11/20 00:37:47;;;;;;;4.20;1.80;;;;;;;11.59;79.63;100138.73;87510;1293;94141;-63
2021/11/20 00:39:54;;;;;;;8.40;2.90;;;;;;;11.59;79.52;100157.71;87522;1293;80481;-63
2021/11/20 00:42:06;;;;;;;4.20;2.40;;;;;;;11.58;79.51;100158.25;87440;1292;83100;-62
2021/11/20 00:44:13;;;;;;;7.10;2.70;;;;;;;11.53;79.52;100159.60;87439;1293;100160;-67
2021/11/20 00:46:22;;;;;;;5.90;2.10;;;;;;;11.51;79.49;100162.01;87511;1293;89250;-67
2021/11/20 00:48:28;;;;;;;3.80;1.60;;;;;;;11.51;79.45;100161.80;87421;1292;95797;-65
2021/11/20 00:50:39;;;;;;;6.90;1.90;;;;;;;11.51;79.40;100162.66;87539;1293;79249;-63
2021/11/20 00:52:46;;;;;;;4.50;2.00;;;;;;;11.53;79.20;100160.64;87516;1293;83450;-67
2021/11/20 00:54:56;;;;;;;6.40;3.00;;;;;;;11.55;79.22;100161.14;87550;1293;98626;-67
2021/11/20 00:57:09;;;;;;;4.00;1.80;;;;;;;11.57;79.22;100162.41;87546;1289;88307;-68
2021/11/20 00:59:16;;;;;;;5.10;1.60;;;;;;;11.57;78.97;100171.53;87531;1293;94583;-67
2021/11/20 01:01:29;;;;;;;9.70;2.60;;;;;;;11.57;78.83;100171.35;87538;1293;79412;-67
2021/11/20 01:03:38;;;;;;;7.10;2.20;;;;;;;11.54;78.86;100166.77;87552;1293;82036;-63
2021/11/20 01:05:47;;;;;;;5.60;2.00;;;;;;;11.52;79.07;100171.61;87543;1293;100053;-63
2021/11/20 01:07:57;;;;;;;7.90;2.70;;;;;;;11.50;78.67;100167.78;87555;1293;88219;-63
2021/11/20 01:10:05;;;;;;;5.40;1.90;;;;;;;11.49;78.80;100162.73;87429;1293;95740;-64
2021/11/20 01:12:15;;;;;;;4.20;2.00;;;;;;;11.49;78.77;100159.16;87456;1299;83049;-63
2021/11/20 01:14:25;;;;;;;3.60;1.50;;;;;;;11.53;78.71;100160.80;87535;1293;83657;-63
2021/11/20 01:16:35;;;;;;;5.50;2.60;;;;;;;11.56;78.76;100156.29;87551;1293;98325;-63
2021/11/20 01:18:42;;;;;;;6.10;2.00;;;;;;;11.58;78.47;100158.41;87569;1293;88302;-62
2021/11/20 01:20:52;;;;;;;7.50;2.30;;;;;;;11.59;78.59;100157.52;87440;1292;94913;-62
2021/11/20 01:22:59;;;;;;;6.50;2.60;;;;;;;11.59;78.65;100164.08;87418;1293;79145;-62
2021/11/20 01:25:08;;;;;;;5.80;1.80;;;;;;;11.57;78.17;100151.88;87539;1285;80547;-63
2021/11/20 01:27:15;;;;;;;7.10;2.50;;;;;;;11.52;78.27;100149.81;87450;1297;98069;-65
2021/11/20 01:29:26;;;;;;;3.40;1.50;;;;;;;11.49;77.79;100154.91;87443;1293;88961;-67
2021/11/20 01:31:36;;;;;;;4.10;2.00;;;;;;;11.48;78.21;100152.16;87508;1293;93771;-66
2021/11/20 01:33:44;;;;;;;8.40;1.80;;;;;;;11.49;78.06;100144.39;87535;1293;82131;-66
2021/11/20 01:35:51;;;;;;;4.60;1.80;;;;;;;11.51;78.20;100163.55;87552;1290;81364;-68
2021/11/20 01:37:58;;;;;;;5.20;1.90;;;;;;;11.50;78.08;100163.54;87535;1293;99661;-67
2021/11/20 01:40:10;;;;;;;5.10;2.10;;;;;;;11.53;78.07;100158.64;87551;1293;87292;-66
2021/11/20 01:42:21;;;;;;;4.80;2.00;;;;;;;11.53;78.14;100145.99;87439;1292;95634;-63
2021/11/20 01:44:33;;;;;;;5.20;1.60;;;;;;;11.53;78.05;100143.83;87426;1290;78992;-62
2021/11/20 01:46:43;;;;;;;5.40;1.90;;;;;;;11.53;77.91;100131.20;87559;1294;81658;-62
2021/11/20 01:49:10;;;;;;;5.10;1.90;;;;;;;11.52;77.69;100140.23;87410;1293;99618;-68
2021/11/20 01:51:20;;;;;;;4.80;1.70;;;;;;;11.52;77.83;100155.35;87454;1292;89456;-67
2021/11/20 01:53:36;;;;;;;4.50;1.90;;;;;;;11.52;77.74;100154.09;87533;1289;95189;-65
2021/11/20 01:55:48;;;;;;;7.00;2.10;;;;;;;11.49;77.74;100162.33;87538;1293;79511;-62
2021/11/20 01:58:08;;;;;;;7.10;2.10;;;;;;;11.51;77.94;100156.42;87536;1293;80873;-67
2021/11/20 02:00:24;;;;;;;4.50;1.80;;;;;;;11.55;78.06;100150.16;87539;1296;98583;-67
2021/11/20 02:02:37;;;;;;;5.30;2.00;;;;;;;11.55;77.98;100148.46;87419;1293;89048;-63
2021/11/20 02:04:50;;;;;;;4.80;1.90;;;;;;;11.56;78.04;100147.96;87436;1293;95122;-62
2021/11/20 02:07:05;;;;;;;4.80;1.70;;;;;;;11.55;77.83;100143.42;87429;1292;78181;-63
2021/11/20 02:09:17;;;;;;;5.00;2.30;;;;;;;11.54;78.08;100148.23;87426;1296;81998;-63
2021/11/20 02:11:43;;;;;;;6.50;2.00;;;;;;;11.51;78.16;100151.19;87513;1288;97981;-64
2021/11/20 02:13:50;;;;;;;7.30;2.10;;;;;;;11.46;78.11;100143.33;87461;1293;86793;-67
2021/11/20 02:16:03;;;;;;;5.80;2.00;;;;;;;11.45;78.10;100148.70;87406;1292;92958;-67
2021/11/20 02:18:15;;;;;;;6.00;2.00;;;;;;;11.45;78.03;100154.73;87551;1293;80608;-64
2021/11/20 02:20:27;;;;;;;4.70;1.60;;;;;;;11.46;78.23;100163.69;87549;1293;81188;-63
2021/11/20 02:22:38;;;;;;;6.10;2.00;;;;;;;11.48;77.92;100157.78;87539;1293;98285;-62
2021/11/20 02:24:41;;;;;;;10.10;2.90;;;;;;;11.49;78.13;100159.03;87525;1296;88490;-63
2021/11/20 02:26:43;;;;;;;6.50;3.10;;;;;;;11.52;78.19;100161.50;87539;1293;95207;-63
2021/11/20 02:28:51;;;;;;;5.80;2.00;;;;;;;11.51;78.05;100168.87;87433;1292;77961;-64
2021/11/20 02:31:00;;;;;;;5.40;1.80;;;;;;;11.49;78.10;100151.88;87464;1292;81113;-63
2021/11/20 02:33:10;;;;;;;7.90;2.90;;;;;;;11.43;77.82;100156.01;87547;1293;100101;-67
2021/11/20 02:35:23;;;;;;;6.70;2.20;;;;;;;11.39;77.91;100164.57;87551;1293;89151;-67
2021/11/20 02:37:29;;;;;;;5.90;1.90;;;;;;;11.32;78.03;100164.98;87530;1293;93287;-62
2021/11/20 02:39:35;;;;;;;9.20;2.20;;;;;;;11.27;78.08;100167.34;87452;1293;79680;-63
2021/11/20 02:41:44;;;;;;;6.00;2.00;;;;;;;11.23;78.18;100167.81;87409;1290;82714;-61
2021/11/20 02:43:55;;;;;;;4.30;1.70;;;;;;;11.20;78.15;100164.14;87523;1293;99099;-66
2021/11/20 02:46:08;;;;;;;3.80;1.70;;;;;;;11.21;78.20;100167.54;87544;1298;87722;-66
2021/11/20 02:48:14;;;;;;;7.70;1.80;;;;;;;11.22;78.27;100150.54;87519;1293;94573;-62
2021/11/20 02:50:30;;;;;;;8.60;2.60;;;;;;;11.25;78.21;100153.27;87449;1293;78201;-63
2021/11/20 02:52:36;;;;;;;5.80;2.10;;;;;;;11.26;78.04;100171.95;87424;1288;80963;-66
2021/11/20 02:54:43;;;;;;;5.70;1.80;;;;;;;11.24;78.19;100178.71;87526;1293;99421;-68
2021/11/20 02:56:58;;;;;;;5.40;1.70;;;;;;;11.21;78.12;100173.08;87462;1292;87877;-67
2021/11/20 02:59:04;;;;;;;6.70;1.80;;;;;;;11.16;78.13;100167.98;87439;1295;94049;-63
2021/11/20 03:01:16;;;;;;;5.00;1.70;;;;;;;11.17;78.15;100170.77;87518;1295;79802;-64
2021/11/20 03:03:25;;;;;;;6.40;1.90;;;;;;;11.19;78.16;100172.52;87578;1298;81697;-64
2021/11/20 03:05:32;;;;;;;4.20;1.40;;;;;;;11.21;77.94;100170.50;87442;1292;97689;-63
2021/11/20 03:07:38;;;;;;;4.60;1.70;;;;;;;11.19;78.03;100167.08;87454;1297;89095;-67
2021/11/20 03:09:46;;;;;;;7.90;1.70;;;;;;;11.19;78.02;100182.10;87534;1289;94297;-67
2021/11/20 03:11:53;;;;;;;4.30;1.60;;;;;;;11.18;77.96;100180.88;87517;1294;78204;-68
2021/11/20 03:14:04;;;;;;;6.30;2.00;;;;;;;11.15;77.91;100178.83;87524;1293;81683;-62
2021/11/20 03:16:14;;;;;;;4.60;1.80;;;;;;;11.09;77.71;100186.86;87545;1293;98982;-63
2021/11/20 03:18:20;;;;;;;4.60;2.00;;;;;;;11.03;77.86;100199.79;87556;1297;87680;-62
2021/11/20 03:20:26;;;;;;;6.60;2.20;;;;;;;10.98;77.60;100195.29;87420;1299;95469;-63
2021/11/20 03:22:36;;;;;;;5.50;2.10;;;;;;;10.95;77.85;100178.60;87384;1295;79758;-63
2021/11/20 03:24:42;;;;;;;6.50;1.60;;;;;;;10.88;77.77;100186.37;87419;1288;83247;-63
2021/11/20 03:26:49;;;;;;;5.80;1.90;;;;;;;10.85;77.82;100201.35;87521;1293;99624;-64
2021/11/20 03:28:55;;;;;;;7.20;2.00;;;;;;;10.85;78.00;100205.71;87473;1293;88403;-63
2021/11/20 03:31:02;;;;;;;6.50;1.80;;;;;;;10.79;77.88;100203.34;87520;1297;95442;-63
2021/11/20 03:33:08;;;;;;;5.90;1.50;;;;;;;10.75;77.90;100212.87;87524;1298;79152;-65
2021/11/20 03:35:15;;;;;;;5.80;1.60;;;;;;;10.70;78.08;100214.95;87531;1293;80635;-62
2021/11/20 03:37:23;;;;;;;6.00;1.80;;;;;;;10.70;77.97;100216.81;87570;1295;99590;-63
2021/11/20 03:39:30;;;;;;;6.70;2.40;;;;;;;10.62;77.89;100211.95;87570;1292;89722;-62
2021/11/20 03:41:36;;;;;;;5.60;1.60;;;;;;;10.56;77.97;100218.05;87518;1289;94205;-63
2021/11/20 03:43:42;;;;;;;7.40;1.90;;;;;;;10.51;77.95;100228.23;87528;1288;78334;-67
2021/11/20 03:45:48;;;;;;;5.80;1.50;;;;;;;10.44;77.91;100237.47;87524;1294;82692;-67
2021/11/20 03:47:55;;;;;;;5.40;1.70;;;;;;;10.39;77.92;100231.35;87510;1299;99971;-63
2021/11/20 03:50:07;;;;;;;5.10;1.70;;;;;;;10.35;77.75;100222.91;87550;1297;87513;-63
2021/11/20 03:52:16;;;;;;;5.20;1.70;;;;;;;10.31;77.80;100219.73;87385;1293;95624;-68
2021/11/20 03:54:22;;;;;;;6.40;1.30;;;;;;;10.29;77.92;100239.67;87410;1298;81745;-67
2021/11/20 03:56:29;;;;;;;6.80;1.60;;;;;;;10.30;77.95;100239.35;87571;1298;82105;-68
2021/11/20 03:58:37;;;;;;;5.90;2.30;;;;;;;10.31;77.75;100240.98;87417;1295;99516;-63
2021/11/20 04:00:49;;;;;;;8.30;2.80;;;;;;;10.28;77.76;100240.61;87359;1293;89316;-63
2021/11/20 04:02:56;;;;;;;9.00;1.90;;;;;;;10.23;77.83;100244.86;87390;1298;95711;-69
2021/11/20 04:05:02;;;;;;;7.30;1.70;;;;;;;10.19;77.76;100254.18;87426;1299;77750;-68
2021/11/20 04:07:08;;;;;;;6.80;1.30;;;;;;;10.14;77.79;100255.88;87531;1299;82016;-65
2021/11/20 04:09:15;;;;;;;8.50;1.70;;;;;;;10.06;77.80;100257.86;87435;1298;99843;-63
2021/11/20 04:11:24;;;;;;;6.30;1.50;;;;;;;9.99;77.77;100256.65;87472;1293;88732;-63
2021/11/20 04:13:31;;;;;;;5.80;1.90;;;;;;;9.92;77.81;100259.13;87406;1292;95160;-63
2021/11/20 04:15:37;;;;;;;6.60;1.40;;;;;;;9.88;77.79;100260.88;87425;1293;79680;-62
2021/11/20 04:17:43;;;;;;;6.90;1.50;;;;;;;9.84;77.93;100256.55;87435;1293;83045;-61
2021/11/20 04:19:49;;;;;;;9.00;1.90;;;;;;;9.82;77.97;100261.71;87409;1300;99455;-62
2021/11/20 04:21:56;;;;;;;5.80;1.60;;;;;;;9.81;78.07;100260.66;87533;1289;88166;-63
2021/11/20 04:24:03;;;;;;;6.60;1.60;;;;;;;9.83;77.97;100258.81;87422;1293;95607;-68
2021/11/20 04:26:09;;;;;;;7.60;2.20;;;;;;;9.86;78.00;100255.41;87421;1290;78355;-69
2021/11/20 04:28:16;;;;;;;6.60;1.60;;;;;;;9.85;77.96;100257.39;87518;1299;80633;-68
2021/11/20 04:30:22;;;;;;;6.50;1.70;;;;;;;9.82;78.16;100259.88;87413;1293;100093;-68
2021/11/20 04:32:32;;;;;;;5.50;1.70;;;;;;;9.80;78.05;100264.22;87515;1293;89032;-62
2021/11/20 04:34:38;;;;;;;5.50;2.50;;;;;;;9.77;78.00;100265.80;87408;1293;95637;-62
2021/11/20 04:36:45;;;;;;;7.60;2.40;;;;;;;9.76;78.02;100268.72;87535;1295;82602;-62
2021/11/20 04:38:51;;;;;;;5.40;1.20;;;;;;;9.73;77.86;100264.17;87425;1293;80863;-62
2021/11/20 04:40:57;;;;;;;5.30;1.80;;;;;;;9.71;78.00;100271.79;87416;1293;99278;-62
2021/11/20 04:43:03;;;;;;;8.20;2.00;;;;;;;9.72;77.92;100274.59;87538;1299;88838;-61
2021/11/20 04:45:14;;;;;;;7.10;1.40;;;;;;;9.72;77.92;100279.13;87363;1293;94839;-60
2021/11/20 04:47:20;;;;;;;22.80;8.40;;;;;;;9.72;78.08;100281.45;87353;1295;80782;-61
2021/11/20 04:49:26;;;;;;;65.80;31.70;;;;;;;9.70;77.93;100272.13;87541;1290;79914;-63
2021/11/20 04:51:34;;;;;;;61.70;25.50;;;;;;;9.71;78.01;100282.08;87455;1293;99720;-60
2021/11/20 04:53:44;;;;;;;55.10;28.00;;;;;;;9.72;77.91;100274.20;87507;1290;86913;-68
2021/11/20 04:55:57;;;;;;;39.20;23.20;;;;;;;9.70;77.80;100281.84;87510;1289;93928;-67
2021/11/20 04:58:04;;;;;;;21.80;11.50;;;;;;;9.64;77.72;100280.42;87428;1293;79403;-69
2021/11/20 05:00:17;;;;;;;13.40;6.70;;;;;;;9.59;77.75;100280.23;87530;1289;81990;-68
2021/11/20 05:02:23;;;;;;;10.40;6.40;;;;;;;9.55;77.76;100281.88;87394;1296;100144;-66
2021/11/20 05:04:31;;;;;;;14.50;7.00;;;;;;;9.50;77.70;100285.20;87412;1299;88123;-67
2021/11/20 05:06:38;;;;;;;7.60;2.90;;;;;;;9.47;77.81;100293.14;87531;1293;95467;-67
2021/11/20 05:08:48;;;;;;;8.80;4.00;;;;;;;9.47;77.88;100301.22;87488;1293;82863;-62
2021/11/20 05:10:56;;;;;;;9.80;4.70;;;;;;;9.46;77.77;100302.97;87506;1296;81525;-61
2021/11/20 05:13:06;;;;;;;9.90;4.00;;;;;;;9.49;77.68;100304.95;87559;1296;99893;-66
2021/11/20 05:15:17;;;;;;;9.00;3.10;;;;;;;9.51;77.78;100311.48;87567;1296;89483;-68
2021/11/20 05:17:24;;;;;;;10.80;3.60;;;;;;;9.50;77.72;100312.29;87549;1293;94980;-68
2021/11/20 05:19:31;;;;;;;6.80;2.70;;;;;;;9.48;77.72;100315.09;87530;1296;78499;-67
2021/11/20 05:21:38;;;;;;;11.80;6.00;;;;;;;9.45;77.73;100325.86;87440;1299;80624;-68
2021/11/20 05:23:49;;;;;;;8.00;3.10;;;;;;;9.40;77.72;100323.84;87550;1295;99987;-67
2021/11/20 05:25:55;;;;;;;7.00;3.50;;;;;;;9.36;77.67;100332.16;87541;1293;87786;-67
2021/11/20 05:28:01;;;;;;;12.80;8.70;;;;;;;9.33;77.69;100336.87;87492;1293;95339;-67
2021/11/20 05:30:17;;;;;;;12.00;6.80;;;;;;;9.31;77.73;100334.84;87517;1292;81048;-68
2021/11/20 05:32:23;;;;;;;10.00;5.70;;;;;;;9.29;77.70;100337.21;87526;1297;80253;-67
2021/11/20 05:34:29;;;;;;;8.30;2.70;;;;;;;9.30;77.72;100345.70;87523;1295;99794;-67
2021/11/20 05:36:36;;;;;;;16.30;8.00;;;;;;;9.29;77.91;100340.21;87556;1293;88835;-67
2021/11/20 05:38:43;;;;;;;137.10;91.20;;;;;;;9.28;78.03;100349.15;87602;1293;93808;-62
2021/11/20 05:40:50;;;;;;;89.90;65.60;;;;;;;9.28;77.90;100356.34;87543;1294;79354;-61
2021/11/20 05:42:59;;;;;;;13.40;5.90;;;;;;;9.27;78.03;100362.95;87548;1293;80142;-61
2021/11/20 05:45:07;;;;;;;10.50;2.80;;;;;;;9.27;77.89;100361.15;87558;1295;98822;-63
2021/11/20 05:47:17;;;;;;;6.70;2.30;;;;;;;9.26;77.94;100367.52;87581;1294;87024;-69
2021/11/20 05:49:28;;;;;;;8.00;1.90;;;;;;;9.26;77.93;100366.52;87523;1293;95361;-67
2021/11/20 05:51:38;;;;;;;12.10;3.40;;;;;;;9.23;77.91;100361.29;87534;1294;79064;-67
2021/11/20 05:53:48;;;;;;;10.70;3.30;;;;;;;9.21;77.87;100367.48;87555;1295;82087;-61
2021/11/20 05:56:00;;;;;;;10.60;3.20;;;;;;;9.18;77.94;100378.01;87421;1294;99384;-63
2021/11/20 05:58:10;;;;;;;12.90;5.10;;;;;;;9.19;78.04;100380.06;87431;1298;88063;-67
2021/11/20 06:00:21;;;;;;;10.10;4.50;;;;;;;9.19;77.97;100381.01;87422;1294;94855;-67
2021/11/20 06:02:30;;;;;;;10.20;4.20;;;;;;;9.20;78.10;100384.80;87381;1295;77124;-61
2021/11/20 06:04:40;;;;;;;9.90;5.10;;;;;;;9.19;78.05;100393.38;87577;1296;80035;-61
2021/11/20 06:06:49;;;;;;;9.60;2.90;;;;;;;9.19;77.99;100394.85;87578;1297;99750;-61
2021/11/20 06:08:58;;;;;;;11.00;2.50;;;;;;;9.17;77.99;100398.77;87563;1294;88047;-67
2021/11/20 06:11:06;;;;;;;8.60;3.20;;;;;;;9.15;77.90;100408.98;87556;1295;95067;-67
2021/11/20 06:13:14;;;;;;;9.90;3.40;;;;;;;9.11;77.92;100416.81;86933;1294;855693;-67
2021/11/20 06:15:20;;;;;;;8.10;2.80;;;;;;;9.08;78.00;100416.98;87580;1289;80509;-68
2021/11/20 06:17:26;;;;;;;12.40;3.20;;;;;;;9.07;78.03;100415.14;87538;1298;99472;-62
2021/11/20 06:19:32;;;;;;;7.90;2.00;;;;;;;9.10;78.05;100419.61;87573;1295;87529;-62
2021/11/20 06:21:39;;;;;;;7.20;2.00;;;;;;;9.15;77.95;100422.23;87592;1299;95540;-61
2021/11/20 06:23:45;;;;;;;7.90;2.50;;;;;;;9.18;78.04;100425.14;87582;1299;80356;-68
2021/11/20 06:25:52;;;;;;;9.00;3.10;;;;;;;9.20;77.89;100421.16;87554;1293;81243;-67
2021/11/20 06:27:58;;;;;;;9.90;3.70;;;;;;;9.23;78.00;100432.45;87589;1298;99621;-65
2021/11/20 06:30:07;;;;;;;12.90;4.90;;;;;;;9.28;77.94;100436.73;87417;1295;87873;-64
2021/11/20 06:32:13;;;;;;;13.90;3.00;;;;;;;9.29;77.89;100436.79;87577;1293;96160;-67
2021/11/20 06:34:20;;;;;;;10.60;3.20;;;;;;;9.30;77.83;100441.90;87419;1295;78643;-68
2021/11/20 06:36:30;;;;;;;8.50;2.40;;;;;;;9.28;77.86;100442.38;87585;1296;80584;-68
2021/11/20 06:38:39;;;;;;;6.90;1.90;;;;;;;9.29;77.76;100450.20;87552;1297;100393;-62
2021/11/20 06:40:51;;;;;;;8.50;2.10;;;;;;;9.29;77.80;100449.29;87556;1295;87714;-61
2021/11/20 06:42:59;;;;;;;9.50;2.90;;;;;;;9.34;77.74;100453.94;87553;1295;94325;-67
2021/11/20 06:45:08;;;;;;;7.80;2.40;;;;;;;9.38;77.67;100450.89;87560;1294;82587;-67
2021/11/20 06:47:14;;;;;;;12.00;2.70;;;;;;;9.43;77.66;100459.70;87570;1293;82129;-69
2021/11/20 06:49:21;;;;;;;9.20;2.40;;;;;;;9.49;77.86;100464.33;87566;1299;99858;-67
2021/11/20 06:51:27;;;;;;;11.70;3.00;;;;;;;9.58;77.76;100465.85;87565;1293;89576;-67
2021/11/20 06:53:35;;;;;;;11.00;4.20;;;;;;;9.66;77.81;100475.25;87566;1293;95859;-62
2021/11/20 06:55:45;;;;;;;10.40;2.50;;;;;;;9.87;77.84;100477.05;87554;1294;79080;-62
2021/11/20 06:57:54;;;;;;;11.10;2.70;;;;;;;10.23;77.63;100475.50;87588;1293;81091;-62
2021/11/20 07:02:36;;;;;;;6.00;2.10;;;;;;;10.77;76.91;100480.31;87555;1293;88663;-62
2021/11/20 07:04:42;;;;;;;8.70;2.50;;;;;;;11.56;76.70;100476.41;87572;1298;94525;-62
2021/11/20 07:06:54;;;;;;;11.40;3.10;;;;;;;12.44;76.06;100472.95;87541;1293;80009;-62
2021/11/20 07:09:01;;;;;;;10.80;3.30;;;;;;;13.26;75.35;100477.00;87629;1298;82088;-68
2021/11/20 07:11:08;;;;;;;10.60;2.90;;;;;;;13.95;74.42;100478.46;87589;1293;97353;-62
2021/11/20 07:13:15;;;;;;;9.30;3.20;;;;;;;14.39;72.32;100476.98;87664;1295;87548;-62
2021/11/20 07:15:26;;;;;;;8.20;2.30;;;;;;;15.01;72.29;100474.44;87565;1295;95350;-61
2021/11/20 07:17:35;;;;;;;6.10;2.10;;;;;;;15.51;71.54;100477.87;87561;1289;79080;-68
2021/11/20 07:19:42;;;;;;;7.60;2.30;;;;;;;15.96;70.34;100471.42;87585;1297;80588;-69
2021/11/20 07:21:49;;;;;;;6.80;2.30;;;;;;;16.25;69.96;100467.19;87523;1295;98514;-67
2021/11/20 07:24:01;;;;;;;7.10;2.30;;;;;;;16.63;68.49;100465.23;87546;1297;89594;-62
2021/11/20 07:26:09;;;;;;;7.30;2.30;;;;;;;16.94;67.37;100452.67;87540;1293;95900;-63
2021/11/20 07:28:16;;;;;;;6.80;2.40;;;;;;;17.27;67.20;100454.20;87556;1291;77220;-69
2021/11/20 07:30:23;;;;;;;6.80;2.50;;;;;;;17.42;66.25;100456.89;87572;1298;81113;-68
2021/11/20 07:32:30;;;;;;;8.10;2.80;;;;;;;17.60;65.51;100464.95;87565;1294;99789;-70
2021/11/20 07:34:36;;;;;;;7.00;2.80;;;;;;;17.98;64.41;100469.30;87583;1296;88121;-68
2021/11/20 07:36:43;;;;;;;5.70;2.20;;;;;;;18.06;63.44;100461.36;87554;1299;93944;-68
2021/11/20 07:38:55;;;;;;;7.50;2.70;;;;;;;18.32;63.19;100462.38;87557;1293;79039;-69
2021/11/20 07:41:05;;;;;;;9.30;3.30;;;;;;;18.47;62.11;100463.00;87587;1294;82272;-69
2021/11/20 07:43:13;;;;;;;7.10;2.70;;;;;;;18.40;61.19;100463.53;87560;1293;100243;-68
2021/11/20 07:45:20;;;;;;;8.90;3.60;;;;;;;18.28;60.95;100467.41;87575;1295;89500;-69
2021/11/20 07:47:27;;;;;;;8.10;3.50;;;;;;;18.41;60.56;100471.35;87579;1293;93415;-68
2021/11/20 07:49:33;;;;;;;7.80;3.10;;;;;;;18.72;59.20;100465.77;87565;1294;79573;-69
2021/11/20 07:51:40;;;;;;;7.60;3.00;;;;;;;18.78;59.50;100471.27;87580;1293;83256;-72
2021/11/20 07:53:49;;;;;;;7.00;2.80;;;;;;;19.11;59.04;100470.86;87587;1282;98259;-70
2021/11/20 07:55:55;;;;;;;7.00;2.70;;;;;;;19.36;58.55;100472.71;87605;1296;89546;-70
2021/11/20 07:58:02;;;;;;;8.00;3.10;;;;;;;19.05;57.97;100471.02;87403;1290;93150;-72
2021/11/20 08:00:14;;;;;;;8.00;3.60;;;;;;;18.34;57.52;100473.19;87560;1293;78532;-70
2021/11/20 08:02:20;;;;;;;7.60;3.40;;;;;;;17.42;58.64;100478.52;87545;1298;81121;-63
2021/11/20 08:04:26;;;;;;;9.00;3.40;;;;;;;16.73;58.76;100479.32;87592;1299;98260;-62
2021/11/20 08:06:34;;;;;;;9.50;3.20;;;;;;;16.19;59.40;100489.26;87597;1297;88597;-63
2021/11/20 08:08:41;;;;;;;8.20;3.20;;;;;;;15.49;59.11;100490.49;87542;1298;94968;-63
2021/11/20 08:10:47;;;;;;;8.80;4.10;;;;;;;14.94;60.22;100492.77;87579;1298;78928;-63
2021/11/20 08:12:57;;;;;;;9.00;4.10;;;;;;;14.66;60.62;100497.63;87429;1296;83723;-63
2021/11/20 08:15:06;;;;;;;9.10;3.20;;;;;;;14.47;61.10;100506.63;87453;1290;98052;-62
2021/11/20 08:17:13;;;;;;;9.40;4.10;;;;;;;14.27;61.66;100505.55;87575;1292;89659;-62
2021/11/20 08:19:19;;;;;;;10.40;3.70;;;;;;;14.50;61.92;100509.49;87573;1299;94575;-62
2021/11/20 08:21:39;;;;;;;9.20;3.40;;;;;;;15.42;61.72;100504.67;87428;1298;80562;-62
2021/11/20 08:23:50;;;;;;;8.20;2.90;;;;;;;16.08;60.82;100509.57;87422;1299;80318;-72
2021/11/20 08:26:00;;;;;;;8.20;3.10;;;;;;;16.62;60.66;100514.91;87581;1295;99856;-70
2021/11/20 08:28:08;;;;;;;5.60;2.30;;;;;;;17.02;59.91;100514.16;87594;1295;89030;-71
2021/11/20 08:30:22;;;;;;;7.70;2.90;;;;;;;17.46;59.57;100518.52;87585;1295;93832;-72
2021/11/20 08:32:30;;;;;;;;;;;;;;;17.76;59.19;100527.57;87570;1299;80399;-63
2021/11/20 08:34:42;;;;;;;6.40;2.60;;;;;;;17.92;58.46;100532.37;87449;1294;83026;-69
2021/11/20 08:36:49;;;;;;;7.70;3.00;;;;;;;17.78;58.09;100526.36;87426;1292;96515;-70
2021/11/20 08:38:55;;;;;;;8.70;2.70;;;;;;;17.23;57.78;100533.02;87463;1295;86214;-72
2021/11/20 08:41:02;;;;;;;6.30;2.50;;;;;;;16.90;58.26;100537.05;87618;1296;93215;-71
2021/11/20 08:43:08;;;;;;;9.20;3.00;;;;;;;16.85;58.04;100534.94;87585;1293;79651;-64
2021/11/20 08:45:18;;;;;;;6.90;2.70;;;;;;;16.96;58.43;100546.29;87591;1293;80471;-61
2021/11/20 08:47:24;;;;;;;7.50;2.90;;;;;;;17.03;58.13;100546.99;87418;1293;97336;-70
2021/11/20 08:49:30;;;;;;;8.60;3.00;;;;;;;17.20;57.12;100545.08;87597;1297;87716;-71
2021/11/20 08:51:39;;;;;;;7.20;2.70;;;;;;;17.11;57.71;100547.33;87600;1293;95021;-71
2021/11/20 08:53:45;;;;;;;6.80;2.60;;;;;;;17.34;57.69;100546.96;87565;1297;79938;-71
2021/11/20 08:55:58;;;;;;;8.90;3.70;;;;;;;17.27;57.46;100547.30;87593;1298;83506;-71
2021/11/20 08:58:12;;;;;;;6.40;2.90;;;;;;;17.32;56.94;100545.09;87596;1292;96511;-70
2021/11/20 09:00:26;;;;;;;10.00;2.70;;;;;;;17.26;57.19;100545.09;87384;1289;88639;-69
2021/11/20 09:02:39;;;;;;;;;;;;;;;17.26;56.83;100542.98;87428;1299;95244;-69
2021/11/20 09:04:54;;;;;;;9.60;3.40;;;;;;;17.15;56.72;100546.44;87438;1292;78273;-71
2021/11/20 09:07:08;;;;;;;7.80;2.30;;;;;;;17.15;56.36;100542.48;87588;1293;80055;-70
2021/11/20 09:09:23;;;;;;;7.60;2.70;;;;;;;16.93;56.78;100545.11;87574;1299;99179;-62
2021/11/20 09:11:36;;;;;;;7.90;2.80;;;;;;;16.83;56.89;100543.54;87595;1294;88811;-61
2021/11/20 09:13:50;;;;;;;7.50;2.70;;;;;;;16.75;56.82;100540.67;87588;1298;95989;-74
2021/11/20 09:16:06;;;;;;;7.10;2.60;;;;;;;16.77;56.77;100544.44;87533;1293;79940;-71
2021/11/20 09:18:13;;;;;;;6.90;2.80;;;;;;;17.00;56.49;100536.95;87560;1294;83443;-61
2021/11/20 09:20:23;;;;;;;9.40;3.10;;;;;;;16.99;56.41;100545.98;87605;1296;99153;-62
2021/11/20 09:22:32;;;;;;;8.40;3.10;;;;;;;16.74;56.69;100539.39;87571;1298;88587;-70
2021/11/20 09:24:44;;;;;;;6.70;2.60;;;;;;;16.59;57.12;100539.58;87556;1298;95809;-71
2021/11/20 09:26:52;;;;;;;7.30;3.30;;;;;;;16.53;57.15;100534.52;87581;1293;80348;-71
2021/11/20 09:29:02;;;;;;;9.30;2.90;;;;;;;16.74;56.86;100534.23;87410;1297;81977;-71
2021/11/20 09:31:11;;;;;;;8.70;3.00;;;;;;;16.90;56.76;100538.87;87595;1298;97852;-70
2021/11/20 09:33:21;;;;;;;8.80;2.60;;;;;;;16.61;56.34;100537.84;87439;1284;86155;-62
2021/11/20 09:35:31;;;;;;;6.50;2.50;;;;;;;16.57;56.54;100531.96;87574;1294;95961;-62
2021/11/20 09:37:38;;;;;;;10.00;3.00;;;;;;;16.23;56.87;100533.48;87606;1289;78007;-70
2021/11/20 09:39:48;;;;;;;10.30;3.50;;;;;;;16.05;57.06;100530.85;87593;1293;80854;-71
2021/11/20 09:42:34;;;;;;;9.50;3.20;;;;;;;15.83;57.38;100532.98;87595;1294;99566;-71
2021/11/20 09:44:45;;;;;;;10.00;4.00;;;;;;;15.53;57.50;100527.67;87462;1295;88745;-62
2021/11/20 09:47:01;;;;;;;9.60;3.40;;;;;;;15.41;57.87;100520.10;87440;1292;94662;-62
2021/11/20 09:49:18;;;;;;;9.40;4.00;;;;;;;15.37;57.98;100522.95;87621;1293;80140;-70
2021/11/20 09:51:29;;;;;;;8.50;2.80;;;;;;;15.53;57.93;100523.44;87621;1294;79520;-71
2021/11/20 09:53:35;;;;;;;11.10;2.90;;;;;;;15.71;57.79;100520.82;87579;1295;99538;-62
2021/11/20 09:55:45;;;;;;;6.60;2.70;;;;;;;15.66;57.75;100527.47;87594;1291;86423;-62
2021/11/20 09:57:57;;;;;;;9.60;3.60;;;;;;;15.47;58.15;100521.68;87586;1288;94073;-70
2021/11/20 10:00:33;;;;;;;8.20;3.00;;;;;;;15.34;58.11;100520.39;87593;1294;80023;-71
2021/11/20 10:02:53;;;;;;;8.10;2.60;;;;;;;15.00;58.21;100519.61;87448;1293;81097;-67
2021/11/20 10:05:15;;;;;;;10.20;2.30;;;;;;;14.97;58.02;100518.24;87605;1293;98230;-62